CW2798 Aduanas ES current weather conditions

sailwx.info

Wind from 309 at 6 knots gusting 8

Air temperature 8.9° C
Dewpoint 6.8° C

Last reported at 2017-Jan-20 02:30 UTC.
Time now 2017-Jan-20 03:49 UTC

Location: N 38°48' E 000°11'.
View on Google Maps.

See reports from other nearby stations

  
Tides and Currents Weather Stations Pressure Air Temp Water Temp Dewpoint Dewpoint Depression Visibility Wind Speed Wind Dir Waves Ship Positions
date/time (UTC)wind fromknots sea level pressurealtimeterstation pressurevisibilityair tempwater tempwave heightnotes
2017-Jan-20 02:30 309 6 gusting 8 8.9
2017-Jan-20 02:00 240 3 gusting 5 9.4
2017-Jan-20 01:30 166 6 gusting 11 12.2
2017-Jan-20 01:15 052 6 gusting 8 12.2
2017-Jan-20 01:00 064 10 gusting 16 12.2
2017-Jan-20 00:45 071 8 gusting 14 11.7
2017-Jan-20 00:30 090 6 gusting 15 11.7
2017-Jan-20 00:15 105 6 gusting 13 11.7
2017-Jan-20 00:00 080 6 gusting 11 11.7
2017-Jan-19 23:45 092 10.0
2017-Jan-19 23:30 10.0
2017-Jan-19 23:15 216 5 gusting 7 10.6
2017-Jan-19 23:00 141 8 gusting 8 11.7
2017-Jan-19 22:30 137 12 gusting 18 12.8
2017-Jan-19 22:00 199 6 gusting 12 11.1
2017-Jan-19 21:45 241 0 gusting 2 10.6
2017-Jan-19 21:30 130 10 gusting 17 11.1
2017-Jan-19 21:15 072 3 gusting 1 10.0
2017-Jan-19 21:00 078 6 gusting 6 10.0
2017-Jan-19 20:30 222 2 gusting 4 8.9
2017-Jan-19 19:45 134 9 gusting 18 10.6
2017-Jan-19 19:30 088 2 gusting 7 9.4
2017-Jan-19 19:15 048 8.9
2017-Jan-19 19:00 246 0 gusting 3 8.3
2017-Jan-19 18:30 118 9.4
2017-Jan-19 17:45 147 10 gusting 14 10.6
2017-Jan-19 17:30 148 6 gusting 15 10.6
2017-Jan-19 16:45 121 12 gusting 21 13.3
2017-Jan-19 16:30 124 11 gusting 17 13.3
2017-Jan-19 15:45 135 13 gusting 21 13.3
2017-Jan-19 15:30 130 11 gusting 20 12.8
2017-Jan-19 15:15 118 11 gusting 16 12.8
2017-Jan-19 15:00 078 13 gusting 21 11.1
2017-Jan-19 14:45 062 15 gusting 20 10.6
2017-Jan-19 14:00 057 16 gusting 16 10.6
2017-Jan-19 13:15 066 18 gusting 24 11.1
2017-Jan-19 12:30 061 18 gusting 26 10.6
2017-Jan-19 11:00 064 19 gusting 26 10.6
2017-Jan-19 10:45 062 19 gusting 30 10.6
2017-Jan-19 10:30 060 19 gusting 26 10.0
2017-Jan-19 10:15 057 20 gusting 26 10.0
2017-Jan-19 10:00 062 19 gusting 32 10.6
2017-Jan-19 09:45 060 19 gusting 27 10.0
2017-Jan-19 09:30 061 17 gusting 28 9.4
2017-Jan-19 08:45 081 18 gusting 27 9.4
2017-Jan-19 08:15 057 19 gusting 38 11.1
2017-Jan-19 08:00 060 20 gusting 36 11.1
2017-Jan-19 07:30 054 14 gusting 25 10.6
2017-Jan-19 07:15 033 12 gusting 27 10.6
2017-Jan-19 06:45 066 15 gusting 26 10.6
2017-Jan-19 06:30 066 15 gusting 29 10.0
2017-Jan-19 06:15 059 19 gusting 33 10.6
2017-Jan-19 05:15 038 13 gusting 17 8.9
2017-Jan-19 04:45 051 6 gusting 12 8.3
2017-Jan-19 04:30 023 5 gusting 20 8.3
2017-Jan-19 04:15 346 6 gusting 8 7.2
2017-Jan-19 04:00 037 12 gusting 17 7.8
2017-Jan-19 03:30 026 10 gusting 19 8.3
2017-Jan-19 03:15 021 10 gusting 26 8.9
2017-Jan-19 03:00 029 9 gusting 20 8.9
2017-Jan-19 02:45 046 11 gusting 21 9.4
2017-Jan-19 02:30 037 9 gusting 17 8.9
2017-Jan-19 01:45 030 10 gusting 15 10.0
2017-Jan-19 01:30 031 9 gusting 22 10.0
2017-Jan-19 01:15 034 9 gusting 24 10.0
2017-Jan-19 01:00 025 10 gusting 21 10.0
2017-Jan-19 00:45 058 10 gusting 17 10.0
2017-Jan-19 00:15 040 6 gusting 18 9.4
2017-Jan-18 23:15 058 8 gusting 19 8.9
2017-Jan-18 23:00 059 9 gusting 17 8.3
2017-Jan-18 21:45 056 8 gusting 18 10.0
2017-Jan-18 21:00 037 7 gusting 14 10.0
2017-Jan-18 20:30 034 9 gusting 15 10.0
2017-Jan-18 19:45 034 8 gusting 17 9.4
2017-Jan-18 19:00 041 7 gusting 15 9.4
2017-Jan-18 18:15 044 8 gusting 17 9.4
2017-Jan-18 18:00 039 7 gusting 19 9.4
2017-Jan-18 17:45 038 9 gusting 18 9.4
2017-Jan-18 17:30 046 9 gusting 16 9.4
2017-Jan-18 17:15 046 10 gusting 17 9.4
2017-Jan-18 17:00 040 7 gusting 16 9.4
2017-Jan-18 16:30 035 9 gusting 17 9.4
2017-Jan-18 15:15 015 6 gusting 10 8.9
2017-Jan-18 14:30 011 6 gusting 6 8.9
2017-Jan-18 13:30 028 5 gusting 9 8.3
2017-Jan-18 13:15 017 4 gusting 9 8.3
2017-Jan-18 12:30 357 5 gusting 9 7.8
2017-Jan-18 12:00 336 3 gusting 6 7.2
2017-Jan-18 11:45 304 5 gusting 8 5.0
2017-Jan-18 11:15 299 4 gusting 8 4.4
2017-Jan-18 10:30 301 6 gusting 11 4.4
2017-Jan-18 10:15 284 6 gusting 12 4.4
2017-Jan-18 10:00 273 7 gusting 13 4.4
2017-Jan-18 09:45 264 6 gusting 12 3.9
2017-Jan-18 09:15 258 4 gusting 9 2.8
2017-Jan-18 09:00 263 4 gusting 12 2.2
2017-Jan-18 08:45 263 6 gusting 7 2.2
2017-Jan-18 08:30 253 6 gusting 12 2.2
2017-Jan-18 08:15 275 6 gusting 12 2.2
2017-Jan-18 08:00 289 5 gusting 9 1.7
2017-Jan-18 06:00 304 4 gusting 6 1.7
2017-Jan-18 05:45 259 5 gusting 7 1.7
2017-Jan-18 05:30 299 6 gusting 16 1.7
2017-Jan-18 05:00 266 10 gusting 19 2.8
2017-Jan-18 04:15 303 8 gusting 17 2.2
2017-Jan-18 03:45 303 13 gusting 23 2.8